98CL weather

CLOSED Noltas Airport
Willows, California, United States

Public forecast

Using degrees Fahrenheit for public forecast. Weather courtesy of forecast.io.

Closest aviation weather report (METAR) to Noltas Airport

Closest report is Chico Municipal Airport, 20.5 nm (38.0 km) NE. Retrieved 2019/10/22 19:52 UTC (47 minutes ago):

KCIC 221952Z 00000KT 25SM BKN200 25/05 A3019

Closest aviation forecast (TAF) to Noltas Airport

Closest forecast is Red Bluff Municipal Airport, 34.4 nm (63.7 km) N. Retrieved 2019/10/22 18:36 UTC (2 hours ago):

TAF KRBL 221733Z 2218/2318 36011KT P6SM SKC FM231300 34014G26KT P6SM SKC